Time;durP1;ratioP1;P1;durP2;ratioP2;P2;SDS_P1;SDS_P2;PMS_P1;PMS_P2;Temp;Humidity;BMP_temperature;BMP_pressure;BME280_temperature;BME280_humidity;BME280_pressure;Samples;Min_cycle;Max_cycle;Signal;HPM_P1;HPM_P2
2023/01/14 00:02:09;;;;;;;;;;;;;;;;;;4960412;28;20643;-68
2023/01/14 00:04:35;;;;;;;;;;;;;;;;;;4976478;28;20052;-69
2023/01/14 00:07:02;;;;;;;;;;;;;;;;;;4961187;28;20396;-69
2023/01/14 00:09:32;;;;;;;;;;;;;;;;;;4967179;28;20376;-68
2023/01/14 00:12:00;;;;;;;;;;;;;;;;;;4975617;28;19926;-70
2023/01/14 00:14:26;;;;;;;;;;;;;;;;;;4975296;28;19963;-70
2023/01/14 00:16:57;;;;;;;;;;;;;;;;;;4975296;28;19929;-69
2023/01/14 00:19:25;;;;;;;;;;;;;;;;;;4961543;28;20106;-68
2023/01/14 00:21:54;;;;;;;;;;;;;;;;;;4947280;28;21667;-69
2023/01/14 00:24:20;;;;;;;;;;;;;;;;;;4962359;28;19921;-69
2023/01/14 00:26:46;;;;;;;;;;;;;;;;;;4975950;28;20277;-68
2023/01/14 00:29:11;;;;;;;;;;;;;;;;;;4958527;28;19963;-68
2023/01/14 00:31:36;;;;;;;;;;;;;;;;;;4948029;28;20533;-68
2023/01/14 00:34:04;;;;;;;;;;;;;;;;;;4961381;28;19924;-67
2023/01/14 00:36:32;;;;;;;;;;;;;;;;;;4961856;28;19944;-68
2023/01/14 00:38:57;;;;;;;;;;;;;;;;;;4976772;28;20381;-68
2023/01/14 00:41:23;;;;;;;;;;;;;;;;;;4972872;28;19922;-68
2023/01/14 00:43:48;;;;;;;;;;;;;;;;;;4966539;28;19957;-69
2023/01/14 00:46:13;;;;;;;;;;;;;;;;;;4960269;28;20355;-69
2023/01/14 00:48:42;;;;;;;;;;;;;;;;;;4975209;28;20024;-69
2023/01/14 00:51:09;;;;;;;;;;;;;;;;;;4947369;28;20633;-69
2023/01/14 00:53:37;;;;;;;;;;;;;;;;;;4978349;28;19917;-71
2023/01/14 00:56:05;;;;;;;;;;;;;;;;;;4974627;28;19986;-68
2023/01/14 00:58:33;;;;;;;;;;;;;;;;;;4974535;28;19928;-69
2023/01/14 01:01:01;;;;;;;;;;;;;;;;;;4976272;28;19976;-68
2023/01/14 01:03:29;;;;;;;;;;;;;;;;;;4976002;28;19965;-69
2023/01/14 01:05:55;;;;;;;;;;;;;;;;;;4963202;28;20348;-70
2023/01/14 01:08:21;;;;;;;;;;;;;;;;;;4974397;28;19928;-69
2023/01/14 01:10:46;;;;;;;;;;;;;;;;;;4973833;28;19921;-70
2023/01/14 01:13:12;;;;;;;;;;;;;;;;;;4966514;28;19929;-69
2023/01/14 01:15:38;;;;;;;;;;;;;;;;;;4945131;28;19938;-69
2023/01/14 01:18:03;;;;;;;;;;;;;;;;;;4967172;28;20452;-70
2023/01/14 01:20:31;;;;;;;;;;;;;;;;;;4946059;28;21844;-69
2023/01/14 01:22:56;;;;;;;;;;;;;;;;;;4978306;28;19917;-69
2023/01/14 01:25:22;;;;;;;;;;;;;;;;;;4960439;28;20431;-67
2023/01/14 01:27:53;;;;;;;;;;;;;;;;;;4972679;28;19917;-70
2023/01/14 01:30:18;;;;;;;;;;;;;;;;;;4974486;28;20013;-65
2023/01/14 01:32:46;;;;;;;;;;;;;;;;;;4944414;28;19928;-68
2023/01/14 01:35:11;;;;;;;;;;;;;;;;;;4962363;28;19953;-68
2023/01/14 01:37:39;;;;;;;;;;;;;;;;;;4958265;28;19926;-68
2023/01/14 01:40:05;;;;;;;;;;;;;;;;;;4944498;28;19948;-69
2023/01/14 01:42:33;;;;;;;;;;;;;;;;;;4964283;28;20088;-69
2023/01/14 01:44:59;;;;;;;;;;;;;;;;;;4973907;28;19929;-70
2023/01/14 01:47:26;;;;;;;;;;;;;;;;;;4959883;28;19918;-67
2023/01/14 01:49:54;;;;;;;;;;;;;;;;;;4959319;28;20043;-69
2023/01/14 01:52:22;;;;;;;;;;;;;;;;;;4973361;28;20637;-69
2023/01/14 01:54:49;;;;;;;;;;;;;;;;;;4965845;28;19968;-70
2023/01/14 01:57:15;;;;;;;;;;;;;;;;;;4964787;28;20091;-69
2023/01/14 01:59:41;;;;;;;;;;;;;;;;;;4976045;28;19933;-68
2023/01/14 02:02:09;;;;;;;;;;;;;;;;;;4963969;28;19917;-69
2023/01/14 02:04:34;;;;;;;;;;;;;;;;;;4952457;28;19932;-69
2023/01/14 02:10:19;;;;;;;;;;;;;;;;;;4978025;28;19928;-68
2023/01/14 02:12:45;;;;;;;;;;;;;;;;;;4977852;28;19925;-68
2023/01/14 02:15:10;;;;;;;;;;;;;;;;;;4965805;28;19937;-68
2023/01/14 02:17:36;;;;;;;;;;;;;;;;;;4968993;28;19918;-69
2023/01/14 02:20:03;;;;;;;;;;;;;;;;;;4977406;28;20590;-69
2023/01/14 02:22:29;;;;;;;;;;;;;;;;;;4981167;28;19976;-68
2023/01/14 02:24:54;;;;;;;;;;;;;;;;;;4976397;28;19936;-67
2023/01/14 02:27:22;;;;;;;;;;;;;;;;;;4964433;28;20462;-68
2023/01/14 02:29:47;;;;;;;;;;;;;;;;;;4953064;28;21272;-68
2023/01/14 02:32:13;;;;;;;;;;;;;;;;;;4967559;28;19986;-67
2023/01/14 02:34:41;;;;;;;;;;;;;;;;;;4964897;28;19929;-68
2023/01/14 02:37:06;;;;;;;;;;;;;;;;;;4957996;28;19921;-68
2023/01/14 02:39:35;;;;;;;;;;;;;;;;;;4974481;28;20904;-69
2023/01/14 02:44:50;;;;;;;;;;;;;;;;;;4977552;28;20841;-68
2023/01/14 02:47:15;;;;;;;;;;;;;;;;;;4959798;28;19932;-67
2023/01/14 02:49:43;;;;;;;;;;;;;;;;;;4959560;28;20373;-67
2023/01/14 02:52:13;;;;;;;;;;;;;;;;;;4959878;28;19921;-67
2023/01/14 02:54:41;;;;;;;;;;;;;;;;;;4975096;28;19928;-68
2023/01/14 02:57:09;;;;;;;;;;;;;;;;;;4960764;28;19921;-67
2023/01/14 02:59:35;;;;;;;;;;;;;;;;;;4974656;28;19988;-67
2023/01/14 03:02:05;;;;;;;;;;;;;;;;;;4973543;28;20063;-67
2023/01/14 03:04:30;;;;;;;;;;;;;;;;;;4946677;28;19933;-67
2023/01/14 03:06:58;;;;;;;;;;;;;;;;;;4958065;28;19983;-67
2023/01/14 03:09:26;;;;;;;;;;;;;;;;;;4961155;28;19925;-67
2023/01/14 03:11:53;;;;;;;;;;;;;;;;;;4959038;28;19926;-67
2023/01/14 03:14:19;;;;;;;;;;;;;;;;;;4973265;28;19973;-67
2023/01/14 03:16:46;;;;;;;;;;;;;;;;;;4975310;28;19921;-66
2023/01/14 03:19:12;;;;;;;;;;;;;;;;;;4972520;28;20363;-67
2023/01/14 03:21:40;;;;;;;;;;;;;;;;;;4975817;28;19922;-67
2023/01/14 03:24:08;;;;;;;;;;;;;;;;;;4960414;28;19929;-67
2023/01/14 03:26:34;;;;;;;;;;;;;;;;;;4973130;28;19917;-68
2023/01/14 03:29:01;;;;;;;;;;;;;;;;;;4961551;28;20447;-67
2023/01/14 03:31:29;;;;;;;;;;;;;;;;;;4943684;28;19921;-67
2023/01/14 03:33:57;;;;;;;;;;;;;;;;;;4975419;28;19917;-68
2023/01/14 03:36:30;;;;;;;;;;;;;;;;;;4973489;28;20376;-67
2023/01/14 03:38:55;;;;;;;;;;;;;;;;;;4974900;28;19921;-67
2023/01/14 03:44:05;;;;;;;;;;;;;;;;;;4974526;28;19959;-67
2023/01/14 03:46:30;;;;;;;;;;;;;;;;;;4943280;28;20097;-69
2023/01/14 03:48:58;;;;;;;;;;;;;;;;;;4977174;28;19925;-67
2023/01/14 03:51:23;;;;;;;;;;;;;;;;;;4959122;28;19974;-68
2023/01/14 03:53:48;;;;;;;;;;;;;;;;;;4958386;28;19944;-67
2023/01/14 03:56:13;;;;;;;;;;;;;;;;;;4958611;28;20499;-67
2023/01/14 03:58:41;;;;;;;;;;;;;;;;;;4943067;28;19949;-67
2023/01/14 04:01:06;;;;;;;;;;;;;;;;;;4971884;28;19924;-67
2023/01/14 04:03:34;;;;;;;;;;;;;;;;;;4943064;28;19917;-69
2023/01/14 04:06:00;;;;;;;;;;;;;;;;;;4957971;28;19921;-69
2023/01/14 04:08:25;;;;;;;;;;;;;;;;;;4971664;28;19933;-68
2023/01/14 04:10:53;;;;;;;;;;;;;;;;;;4973681;28;20208;-69
2023/01/14 04:16:08;;;;;;;;;;;;;;;;;;4973162;28;20680;-67
2023/01/14 04:18:33;;;;;;;;;;;;;;;;;;4970781;28;20063;-67
2023/01/14 04:20:59;;;;;;;;;;;;;;;;;;4958917;28;19977;-67
2023/01/14 04:23:26;;;;;;;;;;;;;;;;;;4955380;28;19921;-69
2023/01/14 04:25:52;;;;;;;;;;;;;;;;;;4973302;28;20557;-67
2023/01/14 04:28:17;;;;;;;;;;;;;;;;;;4959112;28;19922;-67
2023/01/14 04:30:45;;;;;;;;;;;;;;;;;;4975006;28;19932;-67
2023/01/14 04:33:13;;;;;;;;;;;;;;;;;;4972867;28;19925;-67
2023/01/14 04:35:41;;;;;;;;;;;;;;;;;;4973538;28;19917;-70
2023/01/14 04:38:06;;;;;;;;;;;;;;;;;;4961693;28;20256;-68
2023/01/14 04:43:16;;;;;;;;;;;;;;;;;;4968851;28;20645;-68
2023/01/14 04:45:42;;;;;;;;;;;;;;;;;;4958655;28;19932;-67
2023/01/14 04:48:07;;;;;;;;;;;;;;;;;;4953972;28;20032;-68
2023/01/14 04:53:49;;;;;;;;;;;;;;;;;;4969332;28;19976;-68
2023/01/14 04:56:14;;;;;;;;;;;;;;;;;;4941220;28;19918;-68
2023/01/14 04:58:39;;;;;;;;;;;;;;;;;;4972196;28;21598;-69
2023/01/14 05:01:05;;;;;;;;;;;;;;;;;;4958626;28;20016;-69
2023/01/14 05:03:36;;;;;;;;;;;;;;;;;;4959070;28;19918;-69
2023/01/14 05:06:03;;;;;;;;;;;;;;;;;;4971769;28;20182;-68
2023/01/14 05:08:29;;;;;;;;;;;;;;;;;;4973460;28;19960;-68
2023/01/14 05:10:57;;;;;;;;;;;;;;;;;;4972216;28;20045;-69
2023/01/14 05:13:22;;;;;;;;;;;;;;;;;;4972266;28;20574;-68
2023/01/14 05:15:48;;;;;;;;;;;;;;;;;;4958111;28;19930;-69
2023/01/14 05:18:15;;;;;;;;;;;;;;;;;;4957940;28;19929;-68
2023/01/14 05:20:41;;;;;;;;;;;;;;;;;;4959999;28;19921;-69
2023/01/14 05:23:08;;;;;;;;;;;;;;;;;;4972345;28;19925;-68
2023/01/14 05:25:34;;;;;;;;;;;;;;;;;;4971901;28;21236;-69
2023/01/14 05:28:00;;;;;;;;;;;;;;;;;;4957520;28;19926;-69
2023/01/14 05:30:25;;;;;;;;;;;;;;;;;;4957374;28;19940;-68
2023/01/14 05:32:51;;;;;;;;;;;;;;;;;;4973105;28;20539;-68
2023/01/14 05:35:17;;;;;;;;;;;;;;;;;;4963805;28;20042;-68
2023/01/14 05:37:42;;;;;;;;;;;;;;;;;;4971992;28;19921;-68
2023/01/14 05:40:11;;;;;;;;;;;;;;;;;;4971656;28;21435;-68
2023/01/14 05:48:07;;;;;;;;;;;;;;;;;;4972877;28;19924;-68
2023/01/14 05:50:51;;;;;;;;;;;;;;;;;;4974955;28;20437;-68
2023/01/14 05:53:19;;;;;;;;;;;;;;;;;;4971161;28;19929;-68
2023/01/14 05:55:49;;;;;;;;;;;;;;;;;;4973970;28;19925;-67
2023/01/14 05:58:14;;;;;;;;;;;;;;;;;;4960788;28;19918;-68
2023/01/14 06:06:23;;;;;;;;;;;;;;;;;;4970363;28;19921;-68
2023/01/14 06:08:48;;;;;;;;;;;;;;;;;;4941046;28;19921;-68
2023/01/14 06:11:14;;;;;;;;;;;;;;;;;;4972977;28;19925;-68
2023/01/14 06:13:41;;;;;;;;;;;;;;;;;;4971748;28;20853;-70
2023/01/14 06:16:09;;;;;;;;;;;;;;;;;;4943124;28;19968;-70
2023/01/14 06:18:41;;;;;;;;;;;;;;;;;;4970047;28;20050;-70
2023/01/14 06:21:06;;;;;;;;;;;;;;;;;;4958070;28;20146;-67
2023/01/14 06:23:35;;;;;;;;;;;;;;;;;;4957881;28;20530;-70
2023/01/14 06:26:00;;;;;;;;;;;;;;;;;;4959079;28;19992;-69
2023/01/14 06:28:28;;;;;;;;;;;;;;;;;;4970303;28;19928;-69
2023/01/14 06:30:56;;;;;;;;;;;;;;;;;;4944331;28;19927;-68
2023/01/14 06:33:22;;;;;;;;;;;;;;;;;;4960523;28;19941;-68
2023/01/14 06:35:49;;;;;;;;;;;;;;;;;;4973234;28;19929;-69
2023/01/14 06:38:14;;;;;;;;;;;;;;;;;;4970046;28;19918;-68
2023/01/14 06:40:42;;;;;;;;;;;;;;;;;;4955878;28;19921;-68
2023/01/14 06:43:08;;;;;;;;;;;;;;;;;;4945727;28;19922;-68
2023/01/14 06:45:33;;;;;;;;;;;;;;;;;;4972863;28;19921;-69
2023/01/14 06:47:58;;;;;;;;;;;;;;;;;;4959158;28;20448;-69
2023/01/14 06:50:26;;;;;;;;;;;;;;;;;;4961407;28;20318;-68
2023/01/14 06:52:54;;;;;;;;;;;;;;;;;;4972366;28;20114;-68
2023/01/14 06:55:20;;;;;;;;;;;;;;;;;;4959726;28;20036;-68
2023/01/14 06:57:45;;;;;;;;;;;;;;;;;;4954789;28;20384;-68
2023/01/14 07:00:11;;;;;;;;;;;;;;;;;;4959238;28;20258;-68
2023/01/14 07:02:38;;;;;;;;;;;;;;;;;;4974309;28;19924;-68
2023/01/14 07:05:03;;;;;;;;;;;;;;;;;;4962952;28;19921;-69
2023/01/14 07:07:29;;;;;;;;;;;;;;;;;;4958961;28;19922;-69
2023/01/14 07:09:54;;;;;;;;;;;;;;;;;;4975727;28;19922;-68
2023/01/14 07:12:24;;;;;;;;;;;;;;;;;;4960090;28;19933;-69
2023/01/14 07:14:52;;;;;;;;;;;;;;;;;;4964024;28;19968;-68
2023/01/14 07:17:20;;;;;;;;;;;;;;;;;;4976230;28;20096;-68
2023/01/14 07:19:45;;;;;;;;;;;;;;;;;;4975869;28;19921;-67
2023/01/14 07:22:10;;;;;;;;;;;;;;;;;;4960408;28;19925;-68
2023/01/14 07:24:37;;;;;;;;;;;;;;;;;;4976111;28;19929;-68
2023/01/14 07:27:02;;;;;;;;;;;;;;;;;;4951093;28;19984;-69
2023/01/14 07:29:28;;;;;;;;;;;;;;;;;;4979090;28;19922;-69
2023/01/14 07:31:53;;;;;;;;;;;;;;;;;;4961073;28;19972;-68
2023/01/14 07:34:19;;;;;;;;;;;;;;;;;;4976664;28;19925;-69
2023/01/14 07:36:46;;;;;;;;;;;;;;;;;;4974868;28;19917;-68
2023/01/14 07:39:14;;;;;;;;;;;;;;;;;;4974839;28;20408;-69
2023/01/14 07:41:44;;;;;;;;;;;;;;;;;;4960827;28;20003;-71
2023/01/14 07:44:09;;;;;;;;;;;;;;;;;;4977627;28;19921;-69
2023/01/14 07:46:37;;;;;;;;;;;;;;;;;;4945741;28;20270;-69
2023/01/14 07:49:03;;;;;;;;;;;;;;;;;;4975897;28;20339;-69
2023/01/14 07:51:28;;;;;;;;;;;;;;;;;;4973650;28;19926;-69
2023/01/14 07:53:53;;;;;;;;;;;;;;;;;;4947479;28;20389;-70
2023/01/14 07:56:19;;;;;;;;;;;;;;;;;;4944434;28;19922;-69
2023/01/14 07:58:44;;;;;;;;;;;;;;;;;;4966531;28;19922;-68
2023/01/14 08:01:11;;;;;;;;;;;;;;;;;;4975261;28;19932;-68
2023/01/14 08:03:39;;;;;;;;;;;;;;;;;;4947146;28;19983;-68
2023/01/14 08:06:05;;;;;;;;;;;;;;;;;;4974778;28;19926;-69
2023/01/14 08:08:30;;;;;;;;;;;;;;;;;;4975229;28;20025;-68
2023/01/14 08:10:55;;;;;;;;;;;;;;;;;;4963454;28;20396;-68
2023/01/14 08:13:23;;;;;;;;;;;;;;;;;;4974516;28;19960;-69
2023/01/14 08:15:49;;;;;;;;;;;;;;;;;;4961823;28;19929;-69
2023/01/14 08:18:14;;;;;;;;;;;;;;;;;;4974300;28;20345;-69
2023/01/14 08:20:39;;;;;;;;;;;;;;;;;;4946665;28;20002;-69
2023/01/14 08:23:07;;;;;;;;;;;;;;;;;;4961585;28;19932;-69
2023/01/14 08:25:35;;;;;;;;;;;;;;;;;;4973346;28;20223;-70
2023/01/14 08:28:00;;;;;;;;;;;;;;;;;;4961724;28;19922;-69
2023/01/14 08:30:28;;;;;;;;;;;;;;;;;;4978657;28;20513;-69
2023/01/14 08:32:53;;;;;;;;;;;;;;;;;;4964515;28;20334;-70
2023/01/14 08:35:19;;;;;;;;;;;;;;;;;;4975409;28;20002;-68
2023/01/14 08:37:44;;;;;;;;;;;;;;;;;;4972759;28;20515;-68
2023/01/14 08:40:09;;;;;;;;;;;;;;;;;;4961398;28;19917;-69
2023/01/14 08:42:37;;;;;;;;;;;;;;;;;;4958412;28;19917;-71
2023/01/14 08:45:05;;;;;;;;;;;;;;;;;;4973242;28;19917;-71
2023/01/14 08:47:35;;;;;;;;;;;;;;;;;;4958316;28;20666;-69
2023/01/14 08:50:00;;;;;;;;;;;;;;;;;;4959029;28;19977;-70
2023/01/14 08:52:25;;;;;;;;;;;;;;;;;;4974237;28;20286;-71
2023/01/14 08:54:51;;;;;;;;;;;;;;;;;;4957897;28;19928;-69
2023/01/14 08:57:16;;;;;;;;;;;;;;;;;;4971948;28;20544;-69
2023/01/14 08:59:45;;;;;;;;;;;;;;;;;;4945609;28;20380;-69
2023/01/14 09:02:11;;;;;;;;;;;;;;;;;;4940617;28;21029;-68
2023/01/14 09:04:38;;;;;;;;;;;;;;;;;;4969709;28;19964;-67
2023/01/14 09:18:05;;;;;;;;;;;;;;;;;;4951795;28;19918;-68
2023/01/14 09:20:30;;;;;;;;;;;;;;;;;;4937217;28;19922;-70
2023/01/14 09:22:55;;;;;;;;;;;;;;;;;;4934400;28;19917;-70
2023/01/14 09:25:23;;;;;;;;;;;;;;;;;;4940312;28;20294;-70
2023/01/14 09:27:49;;;;;;;;;;;;;;;;;;4949868;28;19918;-70
2023/01/14 09:30:14;;;;;;;;;;;;;;;;;;4937799;28;19924;-70
2023/01/14 09:32:42;;;;;;;;;;;;;;;;;;4940879;28;19926;-71
2023/01/14 09:35:12;;;;;;;;;;;;;;;;;;4972635;28;19925;-70
2023/01/14 09:37:40;;;;;;;;;;;;;;;;;;4952943;28;21759;-70
2023/01/14 09:40:05;;;;;;;;;;;;;;;;;;4957791;28;19928;-70
2023/01/14 09:42:30;;;;;;;;;;;;;;;;;;4938116;28;20123;-71
2023/01/14 09:44:59;;;;;;;;;;;;;;;;;;4951625;28;20465;-70
2023/01/14 09:47:24;;;;;;;;;;;;;;;;;;4934412;28;19921;-71
2023/01/14 09:49:53;;;;;;;;;;;;;;;;;;4953091;28;20366;-72
2023/01/14 09:52:18;;;;;;;;;;;;;;;;;;4950943;28;19926;-69
2023/01/14 09:54:43;;;;;;;;;;;;;;;;;;4959711;28;19922;-72
2023/01/14 09:57:11;;;;;;;;;;;;;;;;;;4953343;28;19929;-71
2023/01/14 09:59:36;;;;;;;;;;;;;;;;;;4969304;28;19918;-71
2023/01/14 10:02:01;;;;;;;;;;;;;;;;;;4957755;28;20284;-72
2023/01/14 10:04:29;;;;;;;;;;;;;;;;;;4958207;28;19917;-72
2023/01/14 10:06:57;;;;;;;;;;;;;;;;;;4936650;28;20393;-72
2023/01/14 10:09:22;;;;;;;;;;;;;;;;;;4953571;28;19926;-73
2023/01/14 10:11:50;;;;;;;;;;;;;;;;;;4971275;28;20560;-72
2023/01/14 10:14:18;;;;;;;;;;;;;;;;;;4954921;28;19921;-73
2023/01/14 10:16:46;;;;;;;;;;;;;;;;;;4957560;28;20005;-72
2023/01/14 10:19:14;;;;;;;;;;;;;;;;;;4958770;28;20301;-71
2023/01/14 10:21:39;;;;;;;;;;;;;;;;;;4942237;28;20011;-73
2023/01/14 10:24:07;;;;;;;;;;;;;;;;;;4957962;28;19921;-72
2023/01/14 10:26:33;;;;;;;;;;;;;;;;;;4957681;28;20704;-72
2023/01/14 10:28:58;;;;;;;;;;;;;;;;;;4955214;28;19996;-71
2023/01/14 10:31:29;;;;;;;;;;;;;;;;;;4954790;28;19922;-73
2023/01/14 10:33:57;;;;;;;;;;;;;;;;;;4971383;28;20363;-71
2023/01/14 10:36:22;;;;;;;;;;;;;;;;;;4957203;28;19922;-69
2023/01/14 10:38:50;;;;;;;;;;;;;;;;;;4941056;28;21815;-71
2023/01/14 10:41:15;;;;;;;;;;;;;;;;;;4977648;28;19932;-70
2023/01/14 10:43:42;;;;;;;;;;;;;;;;;;4945780;28;20306;-73
2023/01/14 10:46:07;;;;;;;;;;;;;;;;;;4959828;28;19965;-71
2023/01/14 10:48:32;;;;;;;;;;;;;;;;;;4959000;28;20391;-72
2023/01/14 10:50:57;;;;;;;;;;;;;;;;;;4960813;28;20001;-72
2023/01/14 10:53:25;;;;;;;;;;;;;;;;;;4961249;28;19926;-72
2023/01/14 10:55:53;;;;;;;;;;;;;;;;;;4972796;28;20384;-71
2023/01/14 10:58:21;;;;;;;;;;;;;;;;;;4964561;28;19926;-69
2023/01/14 11:00:51;;;;;;;;;;;;;;;;;;4956452;28;19929;-71
2023/01/14 11:03:18;;;;;;;;;;;;;;;;;;4972697;28;20269;-71
2023/01/14 11:05:46;;;;;;;;;;;;;;;;;;4958050;28;19922;-72
2023/01/14 11:08:12;;;;;;;;;;;;;;;;;;4955389;28;19937;-71
2023/01/14 11:10:40;;;;;;;;;;;;;;;;;;4959456;28;19921;-72
2023/01/14 11:13:05;;;;;;;;;;;;;;;;;;4957833;28;19922;-71
2023/01/14 11:15:30;;;;;;;;;;;;;;;;;;4961661;28;19929;-70
2023/01/14 11:17:58;;;;;;;;;;;;;;;;;;4965101;28;19940;-72
2023/01/14 11:20:27;;;;;;;;;;;;;;;;;;4976444;28;19945;-72
2023/01/14 11:22:52;;;;;;;;;;;;;;;;;;4962104;28;19956;-72
2023/01/14 11:25:20;;;;;;;;;;;;;;;;;;4949078;28;19922;-72
2023/01/14 11:27:48;;;;;;;;;;;;;;;;;;4975650;28;19988;-72
2023/01/14 11:30:15;;;;;;;;;;;;;;;;;;4979022;28;19917;-70
2023/01/14 11:32:45;;;;;;;;;;;;;;;;;;4980762;28;20475;-71
2023/01/14 11:35:13;;;;;;;;;;;;;;;;;;4975701;28;19960;-72
2023/01/14 11:37:38;;;;;;;;;;;;;;;;;;4976178;28;20048;-72
2023/01/14 11:40:03;;;;;;;;;;;;;;;;;;4961160;28;19932;-72
2023/01/14 11:42:29;;;;;;;;;;;;;;;;;;4964675;28;19933;-72
2023/01/14 11:44:57;;;;;;;;;;;;;;;;;;4959997;28;20412;-69
2023/01/14 11:47:26;;;;;;;;;;;;;;;;;;4962571;28;19925;-69
2023/01/14 11:49:51;;;;;;;;;;;;;;;;;;4974458;28;19968;-71
2023/01/14 11:52:19;;;;;;;;;;;;;;;;;;4973680;28;19928;-71
2023/01/14 11:54:47;;;;;;;;;;;;;;;;;;4979020;28;19957;-75
2023/01/14 11:57:16;;;;;;;;;;;;;;;;;;4977398;28;20408;-71
2023/01/14 11:59:58;;;;;;;;;;;;;;;;;;4974564;28;20130;-71
2023/01/14 12:02:24;;;;;;;;;;;;;;;;;;4957931;28;20653;-70
2023/01/14 12:04:52;;;;;;;;;;;;;;;;;;4960485;28;20361;-72
2023/01/14 12:07:20;;;;;;;;;;;;;;;;;;4978654;28;19918;-72
2023/01/14 12:09:47;;;;;;;;;;;;;;;;;;4957859;28;19922;-70
2023/01/14 12:12:12;;;;;;;;;;;;;;;;;;4961571;28;19926;-71
2023/01/14 12:17:24;;;;;;;;;;;;;;;;;;4977827;28;19933;-71
2023/01/14 12:19:52;;;;;;;;;;;;;;;;;;4960628;28;19922;-71
2023/01/14 12:22:20;;;;;;;;;;;;;;;;;;4974545;28;19929;-71
2023/01/14 12:24:45;;;;;;;;;;;;;;;;;;4945504;28;20710;-71
2023/01/14 12:27:10;;;;;;;;;;;;;;;;;;4978561;28;19921;-70
2023/01/14 12:29:36;;;;;;;;;;;;;;;;;;4961290;28;19922;-69
2023/01/14 12:32:03;;;;;;;;;;;;;;;;;;4961014;28;19921;-72
2023/01/14 12:34:31;;;;;;;;;;;;;;;;;;4958882;28;19921;-71
2023/01/14 12:36:59;;;;;;;;;;;;;;;;;;4978304;28;20136;-73
2023/01/14 12:47:39;;;;;;;;;;;;;;;;;;4961203;28;20572;-71
2023/01/14 12:50:08;;;;;;;;;;;;;;;;;;4975138;28;19964;-70
2023/01/14 12:52:33;;;;;;;;;;;;;;;;;;4974373;28;19921;-75
2023/01/14 12:54:59;;;;;;;;;;;;;;;;;;4962836;28;19921;-74
2023/01/14 12:57:24;;;;;;;;;;;;;;;;;;4961904;28;20340;-73
2023/01/14 12:59:52;;;;;;;;;;;;;;;;;;4973928;28;21594;-74
2023/01/14 13:02:20;;;;;;;;;;;;;;;;;;4961097;28;19996;-72
2023/01/14 13:04:45;;;;;;;;;;;;;;;;;;4974215;28;19922;-72
2023/01/14 13:07:11;;;;;;;;;;;;;;;;;;4975051;28;20504;-71
2023/01/14 13:09:36;;;;;;;;;;;;;;;;;;4970053;28;19921;-74
2023/01/14 13:12:02;;;;;;;;;;;;;;;;;;4958433;28;19925;-69
2023/01/14 13:14:33;;;;;;;;;;;;;;;;;;4975281;28;19961;-71
2023/01/14 13:16:59;;;;;;;;;;;;;;;;;;4976564;28;19972;-70
2023/01/14 13:19:24;;;;;;;;;;;;;;;;;;4963158;28;20343;-73
2023/01/14 13:21:57;;;;;;;;;;;;;;;;;;4960903;28;20024;-72
2023/01/14 13:24:25;;;;;;;;;;;;;;;;;;4978053;28;19918;-72
2023/01/14 13:26:53;;;;;;;;;;;;;;;;;;4966087;28;19924;-72
2023/01/14 13:29:20;;;;;;;;;;;;;;;;;;4977588;28;20373;-71
2023/01/14 13:31:45;;;;;;;;;;;;;;;;;;4964884;28;20187;-70
2023/01/14 13:34:10;;;;;;;;;;;;;;;;;;4965162;28;19948;-70
2023/01/14 13:36:38;;;;;;;;;;;;;;;;;;4962021;28;20233;-71
2023/01/14 13:39:06;;;;;;;;;;;;;;;;;;4962714;28;19980;-71
2023/01/14 13:41:34;;;;;;;;;;;;;;;;;;4959180;28;20007;-72
2023/01/14 13:44:02;;;;;;;;;;;;;;;;;;4974573;28;20019;-72
2023/01/14 13:46:27;;;;;;;;;;;;;;;;;;4972609;28;19979;-73
2023/01/14 13:48:53;;;;;;;;;;;;;;;;;;4962120;28;20466;-72
2023/01/14 13:51:18;;;;;;;;;;;;;;;;;;4977449;28;19921;-73
2023/01/14 13:53:43;;;;;;;;;;;;;;;;;;4964612;28;19933;-73
2023/01/14 13:56:08;;;;;;;;;;;;;;;;;;4948594;28;20308;-72
2023/01/14 13:58:34;;;;;;;;;;;;;;;;;;4978517;28;19937;-70
2023/01/14 14:00:59;;;;;;;;;;;;;;;;;;4969068;28;19940;-71
2023/01/14 14:03:27;;;;;;;;;;;;;;;;;;4964556;28;19988;-72
2023/01/14 14:05:55;;;;;;;;;;;;;;;;;;4977627;28;20024;-71
2023/01/14 14:08:20;;;;;;;;;;;;;;;;;;4975810;28;19941;-71
2023/01/14 14:10:45;;;;;;;;;;;;;;;;;;4979924;28;19922;-71
2023/01/14 14:16:00;;;;;;;;;;;;;;;;;;4960112;28;20784;-72
2023/01/14 14:18:28;;;;;;;;;;;;;;;;;;4958893;28;19952;-70
2023/01/14 14:20:53;;;;;;;;;;;;;;;;;;4957551;28;20477;-70
2023/01/14 14:23:19;;;;;;;;;;;;;;;;;;4963224;28;19921;-70
2023/01/14 14:25:44;;;;;;;;;;;;;;;;;;4962113;28;20254;-71
2023/01/14 14:28:12;;;;;;;;;;;;;;;;;;4947407;28;19922;-69
2023/01/14 14:30:40;;;;;;;;;;;;;;;;;;4972656;28;20188;-68
2023/01/14 14:33:05;;;;;;;;;;;;;;;;;;4961690;28;19926;-69
2023/01/14 14:35:31;;;;;;;;;;;;;;;;;;4960542;28;19928;-70
2023/01/14 14:37:56;;;;;;;;;;;;;;;;;;4961871;28;19965;-68
2023/01/14 14:40:21;;;;;;;;;;;;;;;;;;4960684;28;20336;-69
2023/01/14 14:42:49;;;;;;;;;;;;;;;;;;4957015;28;19959;-73
2023/01/14 14:45:14;;;;;;;;;;;;;;;;;;4958550;28;19922;-72
2023/01/14 14:47:40;;;;;;;;;;;;;;;;;;4961063;28;19917;-69
2023/01/14 14:50:10;;;;;;;;;;;;;;;;;;4958416;28;20001;-69
2023/01/14 14:52:36;;;;;;;;;;;;;;;;;;4973878;28;20325;-68
2023/01/14 14:55:03;;;;;;;;;;;;;;;;;;4952582;28;20498;-69
2023/01/14 14:57:31;;;;;;;;;;;;;;;;;;4955020;28;19925;-70
2023/01/14 14:59:56;;;;;;;;;;;;;;;;;;4940300;28;20392;-69
2023/01/14 15:02:24;;;;;;;;;;;;;;;;;;4974755;28;19922;-69
2023/01/14 15:04:49;;;;;;;;;;;;;;;;;;4945077;28;19918;-69
2023/01/14 15:07:16;;;;;;;;;;;;;;;;;;4956502;28;20356;-69
2023/01/14 15:09:43;;;;;;;;;;;;;;;;;;4957638;28;19922;-69
2023/01/14 15:12:16;;;;;;;;;;;;;;;;;;4972035;28;19933;-68
2023/01/14 15:14:41;;;;;;;;;;;;;;;;;;4960749;28;20453;-68
2023/01/14 15:17:08;;;;;;;;;;;;;;;;;;4945089;28;20020;-68
2023/01/14 15:19:36;;;;;;;;;;;;;;;;;;4957156;28;20235;-68
2023/01/14 15:22:07;;;;;;;;;;;;;;;;;;4958583;28;20388;-69
2023/01/14 15:24:33;;;;;;;;;;;;;;;;;;4977713;28;20609;-70
2023/01/14 15:26:59;;;;;;;;;;;;;;;;;;4945657;28;19917;-69
2023/01/14 15:29:24;;;;;;;;;;;;;;;;;;4945780;28;20037;-68
2023/01/14 15:31:51;;;;;;;;;;;;;;;;;;4958666;28;19926;-68
2023/01/14 15:34:21;;;;;;;;;;;;;;;;;;4958440;28;19922;-68
2023/01/14 15:36:51;;;;;;;;;;;;;;;;;;4959542;28;20554;-68
2023/01/14 15:39:20;;;;;;;;;;;;;;;;;;4958082;28;20632;-69
2023/01/14 15:41:48;;;;;;;;;;;;;;;;;;4960998;28;20549;-68
2023/01/14 15:44:16;;;;;;;;;;;;;;;;;;4976553;28;19925;-69
2023/01/14 15:46:41;;;;;;;;;;;;;;;;;;4965828;28;20368;-68
2023/01/14 15:49:06;;;;;;;;;;;;;;;;;;4975753;28;20355;-69
2023/01/14 15:51:31;;;;;;;;;;;;;;;;;;4958310;28;20384;-69
2023/01/14 15:53:58;;;;;;;;;;;;;;;;;;4955653;28;19922;-68
2023/01/14 15:56:25;;;;;;;;;;;;;;;;;;4945566;28;19922;-69
2023/01/14 15:58:50;;;;;;;;;;;;;;;;;;4957789;28;19964;-69
2023/01/14 16:01:18;;;;;;;;;;;;;;;;;;4954527;28;20517;-68
2023/01/14 16:03:45;;;;;;;;;;;;;;;;;;4956414;28;20298;-69
2023/01/14 16:06:11;;;;;;;;;;;;;;;;;;4960960;28;19929;-69
2023/01/14 16:08:36;;;;;;;;;;;;;;;;;;4936776;28;19918;-68
2023/01/14 16:11:01;;;;;;;;;;;;;;;;;;4957388;28;21541;-69
2023/01/14 16:13:29;;;;;;;;;;;;;;;;;;4953222;28;19957;-70
2023/01/14 16:15:57;;;;;;;;;;;;;;;;;;4954264;28;20545;-69
2023/01/14 16:18:22;;;;;;;;;;;;;;;;;;4951648;28;19926;-69
2023/01/14 16:20:52;;;;;;;;;;;;;;;;;;4968618;28;19922;-69
2023/01/14 16:23:19;;;;;;;;;;;;;;;;;;4962811;28;19917;-69
2023/01/14 16:25:50;;;;;;;;;;;;;;;;;;4955697;28;19992;-70
2023/01/14 16:28:15;;;;;;;;;;;;;;;;;;4961582;28;19929;-69
2023/01/14 16:30:41;;;;;;;;;;;;;;;;;;4953710;28;19918;-69
2023/01/14 16:33:06;;;;;;;;;;;;;;;;;;4970086;28;20275;-68
2023/01/14 16:35:34;;;;;;;;;;;;;;;;;;4936673;28;20794;-70
2023/01/14 16:38:02;;;;;;;;;;;;;;;;;;4951242;28;19980;-70
2023/01/14 16:40:27;;;;;;;;;;;;;;;;;;4952274;28;19922;-70
2023/01/14 16:42:52;;;;;;;;;;;;;;;;;;4955657;28;19937;-69
2023/01/14 16:45:18;;;;;;;;;;;;;;;;;;4956067;28;20750;-69
2023/01/14 16:47:43;;;;;;;;;;;;;;;;;;4955695;28;20008;-70
2023/01/14 16:50:09;;;;;;;;;;;;;;;;;;4974342;28;19969;-68
2023/01/14 16:52:35;;;;;;;;;;;;;;;;;;4957815;28;19928;-70
2023/01/14 16:55:00;;;;;;;;;;;;;;;;;;4954412;28;20028;-69
2023/01/14 16:57:28;;;;;;;;;;;;;;;;;;4959420;28;19925;-68
2023/01/14 16:59:55;;;;;;;;;;;;;;;;;;4955554;28;20020;-68
2023/01/14 17:02:21;;;;;;;;;;;;;;;;;;4956225;28;20021;-69
2023/01/14 17:04:49;;;;;;;;;;;;;;;;;;4953852;28;19980;-70
2023/01/14 17:07:16;;;;;;;;;;;;;;;;;;4942232;28;20044;-69
2023/01/14 17:09:42;;;;;;;;;;;;;;;;;;4956310;28;19924;-67
2023/01/14 17:14:52;;;;;;;;;;;;;;;;;;4954816;28;19922;-68
2023/01/14 17:17:17;;;;;;;;;;;;;;;;;;4958598;28;20286;-69
2023/01/14 17:19:43;;;;;;;;;;;;;;;;;;4960583;28;20012;-68
2023/01/14 17:22:11;;;;;;;;;;;;;;;;;;4940689;28;19918;-68
2023/01/14 17:24:39;;;;;;;;;;;;;;;;;;4959141;28;20419;-69
2023/01/14 17:27:04;;;;;;;;;;;;;;;;;;4972551;28;20409;-68
2023/01/14 17:29:30;;;;;;;;;;;;;;;;;;4955531;28;19922;-68
2023/01/14 17:31:55;;;;;;;;;;;;;;;;;;4954310;28;20585;-68
2023/01/14 17:34:21;;;;;;;;;;;;;;;;;;4954269;28;19928;-67
2023/01/14 17:36:48;;;;;;;;;;;;;;;;;;4973764;28;19960;-67
2023/01/14 17:39:14;;;;;;;;;;;;;;;;;;4954055;28;21574;-67